sensor_id;sensor_type;location;lat;lon;timestamp;temperature;humidity
3701;DHT22;1866;48.374;10.766;2023-04-15T00:00:47;5.10;95.20
3701;DHT22;1866;48.374;10.766;2023-04-15T00:03:15;5.10;99.90
3701;DHT22;1866;48.374;10.766;2023-04-15T00:05:42;5.10;99.90
3701;DHT22;1866;48.374;10.766;2023-04-15T00:08:10;5.00;99.90
3701;DHT22;1866;48.374;10.766;2023-04-15T00:10:37;4.90;99.90
3701;DHT22;1866;48.374;10.766;2023-04-15T00:13:04;4.90;99.90
3701;DHT22;1866;48.374;10.766;2023-04-15T00:15:31;4.90;99.90
3701;DHT22;1866;48.374;10.766;2023-04-15T00:17:58;5.00;99.90
3701;DHT22;1866;48.374;10.766;2023-04-15T00:20:25;5.00;99.90
3701;DHT22;1866;48.374;10.766;2023-04-15T00:22:51;4.90;99.90
3701;DHT22;1866;48.374;10.766;2023-04-15T00:25:20;4.80;99.90
3701;DHT22;1866;48.374;10.766;2023-04-15T00:27:47;4.70;99.90
3701;DHT22;1866;48.374;10.766;2023-04-15T00:30:14;4.70;99.90
3701;DHT22;1866;48.374;10.766;2023-04-15T00:32:41;4.80;99.90
3701;DHT22;1866;48.374;10.766;2023-04-15T00:35:09;4.70;99.90
3701;DHT22;1866;48.374;10.766;2023-04-15T00:37:35;4.80;99.90
3701;DHT22;1866;48.374;10.766;2023-04-15T00:40:03;4.80;99.90
3701;DHT22;1866;48.374;10.766;2023-04-15T00:42:33;4.60;99.90
3701;DHT22;1866;48.374;10.766;2023-04-15T00:45:00;4.40;99.90
3701;DHT22;1866;48.374;10.766;2023-04-15T00:47:28;4.50;99.90
3701;DHT22;1866;48.374;10.766;2023-04-15T00:49:55;4.50;99.90
3701;DHT22;1866;48.374;10.766;2023-04-15T00:52:22;4.40;99.90
3701;DHT22;1866;48.374;10.766;2023-04-15T00:54:49;4.30;99.90
3701;DHT22;1866;48.374;10.766;2023-04-15T00:57:19;4.10;99.90
3701;DHT22;1866;48.374;10.766;2023-04-15T00:59:48;4.10;99.90
3701;DHT22;1866;48.374;10.766;2023-04-15T01:02:16;4.10;99.90
3701;DHT22;1866;48.374;10.766;2023-04-15T01:04:42;4.10;99.90
3701;DHT22;1866;48.374;10.766;2023-04-15T01:07:09;4.20;99.90
3701;DHT22;1866;48.374;10.766;2023-04-15T01:09:36;4.20;99.90
3701;DHT22;1866;48.374;10.766;2023-04-15T01:12:04;4.10;99.90
3701;DHT22;1866;48.374;10.766;2023-04-15T01:14:32;4.30;99.90
3701;DHT22;1866;48.374;10.766;2023-04-15T01:17:00;4.20;99.90
3701;DHT22;1866;48.374;10.766;2023-04-15T01:19:27;4.20;99.90
3701;DHT22;1866;48.374;10.766;2023-04-15T01:21:54;4.30;99.90
3701;DHT22;1866;48.374;10.766;2023-04-15T01:24:22;4.30;99.90
3701;DHT22;1866;48.374;10.766;2023-04-15T01:26:51;4.40;99.90
3701;DHT22;1866;48.374;10.766;2023-04-15T01:29:17;4.30;99.90
3701;DHT22;1866;48.374;10.766;2023-04-15T01:31:49;4.20;99.90
3701;DHT22;1866;48.374;10.766;2023-04-15T01:34:17;4.20;99.90
3701;DHT22;1866;48.374;10.766;2023-04-15T01:36:44;4.20;99.90
3701;DHT22;1866;48.374;10.766;2023-04-15T01:39:11;4.20;99.90
3701;DHT22;1866;48.374;10.766;2023-04-15T01:41:38;4.20;99.90
3701;DHT22;1866;48.374;10.766;2023-04-15T01:44:06;4.10;99.90
3701;DHT22;1866;48.374;10.766;2023-04-15T01:46:34;4.10;99.90
3701;DHT22;1866;48.374;10.766;2023-04-15T01:49:00;4.10;99.90
3701;DHT22;1866;48.374;10.766;2023-04-15T01:51:27;4.20;99.90
3701;DHT22;1866;48.374;10.766;2023-04-15T01:53:54;4.30;99.90
3701;DHT22;1866;48.374;10.766;2023-04-15T01:56:22;4.10;99.90
3701;DHT22;1866;48.374;10.766;2023-04-15T01:58:49;4.20;99.90
3701;DHT22;1866;48.374;10.766;2023-04-15T02:01:18;4.10;99.90
3701;DHT22;1866;48.374;10.766;2023-04-15T02:03:45;4.00;99.90
3701;DHT22;1866;48.374;10.766;2023-04-15T02:06:12;4.00;99.90
3701;DHT22;1866;48.374;10.766;2023-04-15T02:08:39;4.10;99.90
3701;DHT22;1866;48.374;10.766;2023-04-15T02:11:06;4.20;99.90
3701;DHT22;1866;48.374;10.766;2023-04-15T02:13:33;4.20;99.90
3701;DHT22;1866;48.374;10.766;2023-04-15T02:16:00;4.20;99.90
3701;DHT22;1866;48.374;10.766;2023-04-15T02:18:29;4.20;99.90
3701;DHT22;1866;48.374;10.766;2023-04-15T02:20:56;4.10;99.90
3701;DHT22;1866;48.374;10.766;2023-04-15T02:23:23;4.00;99.90
3701;DHT22;1866;48.374;10.766;2023-04-15T02:25:50;4.00;99.90
3701;DHT22;1866;48.374;10.766;2023-04-15T02:28:17;4.00;99.90
3701;DHT22;1866;48.374;10.766;2023-04-15T02:30:46;4.00;99.90
3701;DHT22;1866;48.374;10.766;2023-04-15T02:33:13;4.00;99.90
3701;DHT22;1866;48.374;10.766;2023-04-15T02:35:42;3.90;99.90
3701;DHT22;1866;48.374;10.766;2023-04-15T02:38:10;4.00;99.90
3701;DHT22;1866;48.374;10.766;2023-04-15T02:40:37;4.00;99.90
3701;DHT22;1866;48.374;10.766;2023-04-15T02:43:03;3.90;99.90
3701;DHT22;1866;48.374;10.766;2023-04-15T02:45:32;3.80;99.90
3701;DHT22;1866;48.374;10.766;2023-04-15T02:47:59;3.70;99.90
3701;DHT22;1866;48.374;10.766;2023-04-15T02:50:30;3.80;99.90
3701;DHT22;1866;48.374;10.766;2023-04-15T02:52:58;3.90;99.90
3701;DHT22;1866;48.374;10.766;2023-04-15T02:55:27;4.00;99.90
3701;DHT22;1866;48.374;10.766;2023-04-15T02:57:54;3.80;99.90
3701;DHT22;1866;48.374;10.766;2023-04-15T03:00:21;3.70;99.90
3701;DHT22;1866;48.374;10.766;2023-04-15T03:02:50;3.60;99.90
3701;DHT22;1866;48.374;10.766;2023-04-15T03:05:21;3.70;99.90
3701;DHT22;1866;48.374;10.766;2023-04-15T03:07:49;3.80;99.90
3701;DHT22;1866;48.374;10.766;2023-04-15T03:10:18;3.90;99.90
3701;DHT22;1866;48.374;10.766;2023-04-15T03:12:44;4.00;99.90
3701;DHT22;1866;48.374;10.766;2023-04-15T03:15:11;4.00;99.90
3701;DHT22;1866;48.374;10.766;2023-04-15T03:17:38;4.00;99.90
3701;DHT22;1866;48.374;10.766;2023-04-15T03:20:06;3.80;99.90
3701;DHT22;1866;48.374;10.766;2023-04-15T03:22:33;3.70;99.90
3701;DHT22;1866;48.374;10.766;2023-04-15T03:25:00;3.60;99.90
3701;DHT22;1866;48.374;10.766;2023-04-15T03:27:29;3.50;99.90
3701;DHT22;1866;48.374;10.766;2023-04-15T03:29:56;3.60;99.90
3701;DHT22;1866;48.374;10.766;2023-04-15T03:32:23;3.80;99.90
3701;DHT22;1866;48.374;10.766;2023-04-15T03:34:50;3.80;99.90
3701;DHT22;1866;48.374;10.766;2023-04-15T03:37:17;4.00;99.90
3701;DHT22;1866;48.374;10.766;2023-04-15T03:39:44;4.00;99.90
3701;DHT22;1866;48.374;10.766;2023-04-15T03:42:10;4.00;99.90
3701;DHT22;1866;48.374;10.766;2023-04-15T03:44:38;4.00;99.90
3701;DHT22;1866;48.374;10.766;2023-04-15T03:47:05;4.00;99.90
3701;DHT22;1866;48.374;10.766;2023-04-15T03:49:33;4.10;99.90
3701;DHT22;1866;48.374;10.766;2023-04-15T03:52:00;4.10;99.90
3701;DHT22;1866;48.374;10.766;2023-04-15T03:54:26;3.90;99.90
3701;DHT22;1866;48.374;10.766;2023-04-15T03:56:53;3.70;99.90
3701;DHT22;1866;48.374;10.766;2023-04-15T03:59:20;3.70;99.90
3701;DHT22;1866;48.374;10.766;2023-04-15T04:01:48;3.80;99.90
3701;DHT22;1866;48.374;10.766;2023-04-15T04:04:15;3.80;99.90
3701;DHT22;1866;48.374;10.766;2023-04-15T04:06:42;3.80;99.90
3701;DHT22;1866;48.374;10.766;2023-04-15T04:09:09;3.80;99.90
3701;DHT22;1866;48.374;10.766;2023-04-15T04:11:36;3.70;99.90
3701;DHT22;1866;48.374;10.766;2023-04-15T04:14:03;3.70;99.90
3701;DHT22;1866;48.374;10.766;2023-04-15T04:16:30;3.60;99.90
3701;DHT22;1866;48.374;10.766;2023-04-15T04:18:58;3.60;99.90
3701;DHT22;1866;48.374;10.766;2023-04-15T04:21:25;3.70;99.90
3701;DHT22;1866;48.374;10.766;2023-04-15T04:23:52;3.70;99.90
3701;DHT22;1866;48.374;10.766;2023-04-15T04:26:19;3.80;99.90
3701;DHT22;1866;48.374;10.766;2023-04-15T04:28:46;3.80;99.90
3701;DHT22;1866;48.374;10.766;2023-04-15T04:31:13;3.80;99.90
3701;DHT22;1866;48.374;10.766;2023-04-15T04:33:40;3.60;99.90
3701;DHT22;1866;48.374;10.766;2023-04-15T04:36:08;3.70;99.90
3701;DHT22;1866;48.374;10.766;2023-04-15T04:38:35;3.70;99.90
3701;DHT22;1866;48.374;10.766;2023-04-15T04:41:02;3.70;99.90
3701;DHT22;1866;48.374;10.766;2023-04-15T04:43:29;3.70;99.90
3701;DHT22;1866;48.374;10.766;2023-04-15T04:45:56;3.60;99.90
3701;DHT22;1866;48.374;10.766;2023-04-15T04:48:23;3.70;99.90
3701;DHT22;1866;48.374;10.766;2023-04-15T04:50:50;3.60;99.90
3701;DHT22;1866;48.374;10.766;2023-04-15T04:53:19;3.60;99.90
3701;DHT22;1866;48.374;10.766;2023-04-15T04:55:46;3.50;99.90
3701;DHT22;1866;48.374;10.766;2023-04-15T04:58:12;3.60;99.90
3701;DHT22;1866;48.374;10.766;2023-04-15T05:00:39;3.60;99.90
3701;DHT22;1866;48.374;10.766;2023-04-15T05:03:06;3.50;99.90
3701;DHT22;1866;48.374;10.766;2023-04-15T05:05:33;3.60;99.90
3701;DHT22;1866;48.374;10.766;2023-04-15T05:08:01;3.50;99.90
3701;DHT22;1866;48.374;10.766;2023-04-15T05:10:29;3.60;99.90
3701;DHT22;1866;48.374;10.766;2023-04-15T05:12:56;3.70;99.90
3701;DHT22;1866;48.374;10.766;2023-04-15T05:15:23;3.80;99.90
3701;DHT22;1866;48.374;10.766;2023-04-15T05:17:50;3.90;99.90
3701;DHT22;1866;48.374;10.766;2023-04-15T05:20:17;4.00;99.90
3701;DHT22;1866;48.374;10.766;2023-04-15T05:22:44;4.10;99.90
3701;DHT22;1866;48.374;10.766;2023-04-15T05:25:11;4.10;91.60
3701;DHT22;1866;48.374;10.766;2023-04-15T05:27:39;4.20;74.40
3701;DHT22;1866;48.374;10.766;2023-04-15T05:30:07;4.30;58.30
3701;DHT22;1866;48.374;10.766;2023-04-15T05:32:34;4.40;48.00
3701;DHT22;1866;48.374;10.766;2023-04-15T05:35:01;4.40;27.40
3701;DHT22;1866;48.374;10.766;2023-04-15T05:37:28;4.50;1.00
3701;DHT22;1866;48.374;10.766;2023-04-15T05:39:54;4.60;1.00
3701;DHT22;1866;48.374;10.766;2023-04-15T05:42:21;4.70;1.00
3701;DHT22;1866;48.374;10.766;2023-04-15T05:44:50;4.80;1.00
3701;DHT22;1866;48.374;10.766;2023-04-15T05:47:16;4.90;1.00
3701;DHT22;1866;48.374;10.766;2023-04-15T05:49:43;4.90;1.00
3701;DHT22;1866;48.374;10.766;2023-04-15T05:52:10;4.90;1.00
3701;DHT22;1866;48.374;10.766;2023-04-15T05:54:37;4.90;1.00
3701;DHT22;1866;48.374;10.766;2023-04-15T05:57:04;4.80;1.00
3701;DHT22;1866;48.374;10.766;2023-04-15T05:59:31;4.90;1.00
3701;DHT22;1866;48.374;10.766;2023-04-15T06:01:59;4.90;1.00
3701;DHT22;1866;48.374;10.766;2023-04-15T06:04:26;4.90;1.00
3701;DHT22;1866;48.374;10.766;2023-04-15T06:06:53;4.90;1.00
3701;DHT22;1866;48.374;10.766;2023-04-15T06:09:20;4.80;1.00
3701;DHT22;1866;48.374;10.766;2023-04-15T06:11:47;4.90;1.00
3701;DHT22;1866;48.374;10.766;2023-04-15T06:14:14;4.90;1.00
3701;DHT22;1866;48.374;10.766;2023-04-15T06:16:41;4.90;1.00
3701;DHT22;1866;48.374;10.766;2023-04-15T06:19:09;4.90;1.00
3701;DHT22;1866;48.374;10.766;2023-04-15T06:21:37;4.90;1.00
3701;DHT22;1866;48.374;10.766;2023-04-15T06:24:04;5.00;1.00
3701;DHT22;1866;48.374;10.766;2023-04-15T06:26:31;5.00;1.00
3701;DHT22;1866;48.374;10.766;2023-04-15T06:28:57;5.00;1.00
3701;DHT22;1866;48.374;10.766;2023-04-15T06:31:24;5.00;1.00
3701;DHT22;1866;48.374;10.766;2023-04-15T06:33:51;5.00;1.00
3701;DHT22;1866;48.374;10.766;2023-04-15T06:36:19;5.10;1.00
3701;DHT22;1866;48.374;10.766;2023-04-15T06:38:46;5.10;1.00
3701;DHT22;1866;48.374;10.766;2023-04-15T06:41:13;5.00;1.00
3701;DHT22;1866;48.374;10.766;2023-04-15T06:43:40;5.10;1.00
3701;DHT22;1866;48.374;10.766;2023-04-15T06:46:07;5.10;1.00
3701;DHT22;1866;48.374;10.766;2023-04-15T06:48:33;5.20;1.00
3701;DHT22;1866;48.374;10.766;2023-04-15T06:51:00;5.20;1.00
3701;DHT22;1866;48.374;10.766;2023-04-15T06:53:29;5.20;1.00
3701;DHT22;1866;48.374;10.766;2023-04-15T06:55:56;5.30;1.00
3701;DHT22;1866;48.374;10.766;2023-04-15T06:58:23;5.20;1.00
3701;DHT22;1866;48.374;10.766;2023-04-15T07:00:51;5.30;1.00
3701;DHT22;1866;48.374;10.766;2023-04-15T07:03:18;5.40;1.00
3701;DHT22;1866;48.374;10.766;2023-04-15T07:05:45;5.40;1.00
3701;DHT22;1866;48.374;10.766;2023-04-15T07:08:11;5.50;1.00
3701;DHT22;1866;48.374;10.766;2023-04-15T07:10:40;5.50;1.00
3701;DHT22;1866;48.374;10.766;2023-04-15T07:13:06;5.60;1.00
3701;DHT22;1866;48.374;10.766;2023-04-15T07:15:34;5.50;1.00
3701;DHT22;1866;48.374;10.766;2023-04-15T07:18:01;5.60;1.00
3701;DHT22;1866;48.374;10.766;2023-04-15T07:20:28;5.70;1.00
3701;DHT22;1866;48.374;10.766;2023-04-15T07:22:55;5.80;1.00
3701;DHT22;1866;48.374;10.766;2023-04-15T07:25:22;5.80;1.00
3701;DHT22;1866;48.374;10.766;2023-04-15T07:27:51;5.90;1.00
3701;DHT22;1866;48.374;10.766;2023-04-15T07:30:18;6.20;1.00
3701;DHT22;1866;48.374;10.766;2023-04-15T07:32:45;6.20;1.00
3701;DHT22;1866;48.374;10.766;2023-04-15T07:35:12;6.10;1.00
3701;DHT22;1866;48.374;10.766;2023-04-15T07:37:39;6.20;1.00
3701;DHT22;1866;48.374;10.766;2023-04-15T07:40:08;6.30;1.00
3701;DHT22;1866;48.374;10.766;2023-04-15T07:42:36;6.30;1.00
3701;DHT22;1866;48.374;10.766;2023-04-15T07:45:05;6.40;1.00
3701;DHT22;1866;48.374;10.766;2023-04-15T07:47:32;6.60;1.00
3701;DHT22;1866;48.374;10.766;2023-04-15T07:49:59;6.80;1.00
3701;DHT22;1866;48.374;10.766;2023-04-15T07:52:26;6.80;1.00
3701;DHT22;1866;48.374;10.766;2023-04-15T07:54:53;6.80;1.00
3701;DHT22;1866;48.374;10.766;2023-04-15T07:57:20;6.70;1.00
3701;DHT22;1866;48.374;10.766;2023-04-15T07:59:47;7.00;1.00
3701;DHT22;1866;48.374;10.766;2023-04-15T08:02:15;7.00;1.00
3701;DHT22;1866;48.374;10.766;2023-04-15T08:04:42;7.00;1.00
3701;DHT22;1866;48.374;10.766;2023-04-15T08:07:09;7.10;1.00
3701;DHT22;1866;48.374;10.766;2023-04-15T08:09:36;7.20;1.00
3701;DHT22;1866;48.374;10.766;2023-04-15T08:12:03;7.20;1.00
3701;DHT22;1866;48.374;10.766;2023-04-15T08:14:30;7.30;1.00
3701;DHT22;1866;48.374;10.766;2023-04-15T08:16:57;7.40;1.00
3701;DHT22;1866;48.374;10.766;2023-04-15T08:19:25;7.50;1.00
3701;DHT22;1866;48.374;10.766;2023-04-15T08:21:52;7.70;1.00
3701;DHT22;1866;48.374;10.766;2023-04-15T08:24:19;7.60;1.00
3701;DHT22;1866;48.374;10.766;2023-04-15T08:26:46;7.70;1.00
3701;DHT22;1866;48.374;10.766;2023-04-15T08:29:12;7.80;1.00
3701;DHT22;1866;48.374;10.766;2023-04-15T08:31:39;7.90;1.00
3701;DHT22;1866;48.374;10.766;2023-04-15T08:34:06;7.80;1.00
3701;DHT22;1866;48.374;10.766;2023-04-15T08:36:35;8.10;1.00
3701;DHT22;1866;48.374;10.766;2023-04-15T08:39:02;8.20;1.00
3701;DHT22;1866;48.374;10.766;2023-04-15T08:41:33;8.30;1.00
3701;DHT22;1866;48.374;10.766;2023-04-15T08:44:03;8.20;1.00
3701;DHT22;1866;48.374;10.766;2023-04-15T08:46:30;8.20;1.00
3701;DHT22;1866;48.374;10.766;2023-04-15T08:48:59;8.30;1.00
3701;DHT22;1866;48.374;10.766;2023-04-15T08:51:28;8.40;1.00
3701;DHT22;1866;48.374;10.766;2023-04-15T08:53:58;8.60;1.00
3701;DHT22;1866;48.374;10.766;2023-04-15T08:56:25;8.50;1.00
3701;DHT22;1866;48.374;10.766;2023-04-15T08:58:52;8.50;1.00
3701;DHT22;1866;48.374;10.766;2023-04-15T09:01:19;8.60;1.00
3701;DHT22;1866;48.374;10.766;2023-04-15T09:03:48;8.90;1.00
3701;DHT22;1866;48.374;10.766;2023-04-15T09:06:15;8.90;1.00
3701;DHT22;1866;48.374;10.766;2023-04-15T09:08:42;8.80;1.00
3701;DHT22;1866;48.374;10.766;2023-04-15T09:11:11;8.70;1.00
3701;DHT22;1866;48.374;10.766;2023-04-15T09:13:37;8.90;1.00
3701;DHT22;1866;48.374;10.766;2023-04-15T09:16:05;8.90;1.00
3701;DHT22;1866;48.374;10.766;2023-04-15T09:18:33;8.80;1.00
3701;DHT22;1866;48.374;10.766;2023-04-15T09:21:04;9.10;1.00
3701;DHT22;1866;48.374;10.766;2023-04-15T09:23:33;9.20;1.00
3701;DHT22;1866;48.374;10.766;2023-04-15T09:26:00;9.20;1.00
3701;DHT22;1866;48.374;10.766;2023-04-15T09:28:30;9.20;1.00
3701;DHT22;1866;48.374;10.766;2023-04-15T09:30:57;9.30;1.00
3701;DHT22;1866;48.374;10.766;2023-04-15T09:33:24;9.30;1.00
3701;DHT22;1866;48.374;10.766;2023-04-15T09:35:59;9.40;1.00
3701;DHT22;1866;48.374;10.766;2023-04-15T09:38:27;9.50;1.00
3701;DHT22;1866;48.374;10.766;2023-04-15T09:40:54;9.40;1.00
3701;DHT22;1866;48.374;10.766;2023-04-15T09:43:22;9.60;1.00
3701;DHT22;1866;48.374;10.766;2023-04-15T09:45:52;9.90;1.00
3701;DHT22;1866;48.374;10.766;2023-04-15T09:48:20;9.70;1.00
3701;DHT22;1866;48.374;10.766;2023-04-15T09:50:48;9.80;1.00
3701;DHT22;1866;48.374;10.766;2023-04-15T09:53:16;9.90;1.00
3701;DHT22;1866;48.374;10.766;2023-04-15T09:55:45;10.00;1.00
3701;DHT22;1866;48.374;10.766;2023-04-15T09:58:22;9.90;1.00
3701;DHT22;1866;48.374;10.766;2023-04-15T10:00:52;9.90;1.00
3701;DHT22;1866;48.374;10.766;2023-04-15T10:03:20;10.10;1.00
3701;DHT22;1866;48.374;10.766;2023-04-15T10:05:48;10.20;1.00
3701;DHT22;1866;48.374;10.766;2023-04-15T10:08:17;10.20;1.00
3701;DHT22;1866;48.374;10.766;2023-04-15T10:10:45;10.10;1.00
3701;DHT22;1866;48.374;10.766;2023-04-15T10:13:13;10.10;1.00
3701;DHT22;1866;48.374;10.766;2023-04-15T10:15:43;10.40;1.00
3701;DHT22;1866;48.374;10.766;2023-04-15T10:18:15;10.40;1.00
3701;DHT22;1866;48.374;10.766;2023-04-15T10:20:43;10.40;1.00
3701;DHT22;1866;48.374;10.766;2023-04-15T10:23:11;10.60;1.00
3701;DHT22;1866;48.374;10.766;2023-04-15T10:25:38;10.70;1.00
3701;DHT22;1866;48.374;10.766;2023-04-15T10:28:06;10.30;1.00
3701;DHT22;1866;48.374;10.766;2023-04-15T10:30:34;10.20;1.00
3701;DHT22;1866;48.374;10.766;2023-04-15T10:33:02;10.30;1.00
3701;DHT22;1866;48.374;10.766;2023-04-15T10:35:31;10.30;1.00
3701;DHT22;1866;48.374;10.766;2023-04-15T10:37:59;10.30;1.00
3701;DHT22;1866;48.374;10.766;2023-04-15T10:40:28;10.50;1.00
3701;DHT22;1866;48.374;10.766;2023-04-15T10:42:57;10.30;1.00
3701;DHT22;1866;48.374;10.766;2023-04-15T10:45:25;10.50;1.00
3701;DHT22;1866;48.374;10.766;2023-04-15T10:47:55;10.60;1.00
3701;DHT22;1866;48.374;10.766;2023-04-15T10:50:25;10.50;1.00
3701;DHT22;1866;48.374;10.766;2023-04-15T10:52:55;10.50;1.00
3701;DHT22;1866;48.374;10.766;2023-04-15T10:55:23;10.40;1.00
3701;DHT22;1866;48.374;10.766;2023-04-15T10:57:51;10.30;1.00
3701;DHT22;1866;48.374;10.766;2023-04-15T11:00:20;10.40;1.00
3701;DHT22;1866;48.374;10.766;2023-04-15T11:02:52;10.50;1.00
3701;DHT22;1866;48.374;10.766;2023-04-15T11:05:21;10.40;1.00
3701;DHT22;1866;48.374;10.766;2023-04-15T11:07:54;10.60;1.00
3701;DHT22;1866;48.374;10.766;2023-04-15T11:10:52;10.80;1.00
3701;DHT22;1866;48.374;10.766;2023-04-15T11:13:25;10.60;1.00
3701;DHT22;1866;48.374;10.766;2023-04-15T11:16:01;10.50;1.00
3701;DHT22;1866;48.374;10.766;2023-04-15T11:18:29;10.50;1.00
3701;DHT22;1866;48.374;10.766;2023-04-15T11:20:59;10.60;1.00
3701;DHT22;1866;48.374;10.766;2023-04-15T11:23:30;10.70;1.00
3701;DHT22;1866;48.374;10.766;2023-04-15T11:25:57;10.70;1.00
3701;DHT22;1866;48.374;10.766;2023-04-15T11:28:25;10.50;1.00
3701;DHT22;1866;48.374;10.766;2023-04-15T11:30:53;10.70;1.00
3701;DHT22;1866;48.374;10.766;2023-04-15T11:33:21;10.90;1.00
3701;DHT22;1866;48.374;10.766;2023-04-15T11:35:48;10.40;1.00
3701;DHT22;1866;48.374;10.766;2023-04-15T11:38:15;10.40;1.00
3701;DHT22;1866;48.374;10.766;2023-04-15T11:40:43;10.50;1.00
3701;DHT22;1866;48.374;10.766;2023-04-15T11:43:11;10.60;1.00
3701;DHT22;1866;48.374;10.766;2023-04-15T11:45:48;10.40;1.00
3701;DHT22;1866;48.374;10.766;2023-04-15T11:48:16;10.50;1.00
3701;DHT22;1866;48.374;10.766;2023-04-15T11:50:43;10.60;1.00
3701;DHT22;1866;48.374;10.766;2023-04-15T11:53:12;10.50;1.00
3701;DHT22;1866;48.374;10.766;2023-04-15T11:55:45;10.30;1.00
3701;DHT22;1866;48.374;10.766;2023-04-15T11:58:13;10.30;1.00
3701;DHT22;1866;48.374;10.766;2023-04-15T12:00:44;10.50;1.00
3701;DHT22;1866;48.374;10.766;2023-04-15T12:03:13;10.40;1.00
3701;DHT22;1866;48.374;10.766;2023-04-15T12:06:14;10.30;1.00
3701;DHT22;1866;48.374;10.766;2023-04-15T12:08:59;10.50;1.00
3701;DHT22;1866;48.374;10.766;2023-04-15T12:11:30;10.20;1.00
3701;DHT22;1866;48.374;10.766;2023-04-15T12:13:58;10.20;1.00
3701;DHT22;1866;48.374;10.766;2023-04-15T12:16:27;10.30;1.00
3701;DHT22;1866;48.374;10.766;2023-04-15T12:18:55;10.20;1.00
3701;DHT22;1866;48.374;10.766;2023-04-15T12:21:24;10.00;1.00
3701;DHT22;1866;48.374;10.766;2023-04-15T12:23:52;9.90;1.00
3701;DHT22;1866;48.374;10.766;2023-04-15T12:26:25;10.00;1.00
3701;DHT22;1866;48.374;10.766;2023-04-15T12:28:54;10.20;1.00
3701;DHT22;1866;48.374;10.766;2023-04-15T12:31:22;9.90;1.00
3701;DHT22;1866;48.374;10.766;2023-04-15T12:33:49;9.90;1.00
3701;DHT22;1866;48.374;10.766;2023-04-15T12:36:16;10.00;1.00
3701;DHT22;1866;48.374;10.766;2023-04-15T12:38:43;9.90;1.00
3701;DHT22;1866;48.374;10.766;2023-04-15T12:41:10;9.90;1.00
3701;DHT22;1866;48.374;10.766;2023-04-15T12:43:36;9.70;1.00
3701;DHT22;1866;48.374;10.766;2023-04-15T12:46:05;9.60;1.00
3701;DHT22;1866;48.374;10.766;2023-04-15T12:48:32;9.50;1.00
3701;DHT22;1866;48.374;10.766;2023-04-15T12:50:59;9.60;1.00
3701;DHT22;1866;48.374;10.766;2023-04-15T12:53:26;9.60;1.00
3701;DHT22;1866;48.374;10.766;2023-04-15T12:55:53;9.70;1.00
3701;DHT22;1866;48.374;10.766;2023-04-15T12:58:20;9.80;1.00
3701;DHT22;1866;48.374;10.766;2023-04-15T13:00:47;9.70;1.00
3701;DHT22;1866;48.374;10.766;2023-04-15T13:03:16;9.80;1.00
3701;DHT22;1866;48.374;10.766;2023-04-15T13:05:43;9.90;1.00
3701;DHT22;1866;48.374;10.766;2023-04-15T13:08:10;9.80;1.00
3701;DHT22;1866;48.374;10.766;2023-04-15T13:10:37;9.80;1.00
3701;DHT22;1866;48.374;10.766;2023-04-15T13:13:04;9.90;1.00
3701;DHT22;1866;48.374;10.766;2023-04-15T13:15:31;9.80;1.00
3701;DHT22;1866;48.374;10.766;2023-04-15T13:17:58;9.90;1.00
3701;DHT22;1866;48.374;10.766;2023-04-15T13:20:27;9.90;1.00
3701;DHT22;1866;48.374;10.766;2023-04-15T13:22:53;9.90;1.00
3701;DHT22;1866;48.374;10.766;2023-04-15T13:25:20;10.00;1.00
3701;DHT22;1866;48.374;10.766;2023-04-15T13:27:47;10.00;1.00
3701;DHT22;1866;48.374;10.766;2023-04-15T13:30:14;10.00;1.00
3701;DHT22;1866;48.374;10.766;2023-04-15T13:32:41;10.00;1.00
3701;DHT22;1866;48.374;10.766;2023-04-15T13:35:08;9.90;1.00
3701;DHT22;1866;48.374;10.766;2023-04-15T13:37:36;9.90;1.00
3701;DHT22;1866;48.374;10.766;2023-04-15T13:40:04;9.90;1.00
3701;DHT22;1866;48.374;10.766;2023-04-15T13:42:32;9.90;1.00
3701;DHT22;1866;48.374;10.766;2023-04-15T13:44:59;9.90;1.00
3701;DHT22;1866;48.374;10.766;2023-04-15T13:47:26;9.80;1.00
3701;DHT22;1866;48.374;10.766;2023-04-15T13:49:53;9.80;1.00
3701;DHT22;1866;48.374;10.766;2023-04-15T13:52:21;9.80;1.00
3701;DHT22;1866;48.374;10.766;2023-04-15T13:54:49;9.60;1.00
3701;DHT22;1866;48.374;10.766;2023-04-15T13:57:16;9.70;1.00
3701;DHT22;1866;48.374;10.766;2023-04-15T13:59:43;9.60;1.00
3701;DHT22;1866;48.374;10.766;2023-04-15T14:02:10;9.50;1.00
3701;DHT22;1866;48.374;10.766;2023-04-15T14:04:37;9.50;1.00
3701;DHT22;1866;48.374;10.766;2023-04-15T14:07:04;9.50;1.00
3701;DHT22;1866;48.374;10.766;2023-04-15T14:09:31;9.50;1.00
3701;DHT22;1866;48.374;10.766;2023-04-15T14:11:59;9.50;1.00
3701;DHT22;1866;48.374;10.766;2023-04-15T14:14:26;9.50;1.00
3701;DHT22;1866;48.374;10.766;2023-04-15T14:16:54;9.50;1.00
3701;DHT22;1866;48.374;10.766;2023-04-15T14:19:21;9.50;1.00
3701;DHT22;1866;48.374;10.766;2023-04-15T14:21:48;9.50;1.00
3701;DHT22;1866;48.374;10.766;2023-04-15T14:24:15;9.50;1.00
3701;DHT22;1866;48.374;10.766;2023-04-15T14:26:42;9.50;1.00
3701;DHT22;1866;48.374;10.766;2023-04-15T14:29:11;9.60;1.00
3701;DHT22;1866;48.374;10.766;2023-04-15T14:31:37;9.50;1.00
3701;DHT22;1866;48.374;10.766;2023-04-15T14:34:04;9.50;1.00
3701;DHT22;1866;48.374;10.766;2023-04-15T14:36:31;9.50;1.00
3701;DHT22;1866;48.374;10.766;2023-04-15T14:38:58;9.40;1.00
3701;DHT22;1866;48.374;10.766;2023-04-15T14:41:25;9.20;1.00
3701;DHT22;1866;48.374;10.766;2023-04-15T14:43:52;9.10;1.00
3701;DHT22;1866;48.374;10.766;2023-04-15T14:46:20;9.10;1.00
3701;DHT22;1866;48.374;10.766;2023-04-15T14:48:47;9.10;1.00
3701;DHT22;1866;48.374;10.766;2023-04-15T14:51:14;8.80;1.00
3701;DHT22;1866;48.374;10.766;2023-04-15T14:53:41;8.70;1.00
3701;DHT22;1866;48.374;10.766;2023-04-15T14:56:08;8.60;1.00
3701;DHT22;1866;48.374;10.766;2023-04-15T14:58:35;8.70;1.00
3701;DHT22;1866;48.374;10.766;2023-04-15T15:01:02;8.60;1.00
3701;DHT22;1866;48.374;10.766;2023-04-15T15:03:31;8.60;1.00
3701;DHT22;1866;48.374;10.766;2023-04-15T15:05:59;8.60;1.00
3701;DHT22;1866;48.374;10.766;2023-04-15T15:08:26;8.60;1.00
3701;DHT22;1866;48.374;10.766;2023-04-15T15:10:52;8.60;1.00
3701;DHT22;1866;48.374;10.766;2023-04-15T15:13:19;8.60;1.00
3701;DHT22;1866;48.374;10.766;2023-04-15T15:15:46;8.50;1.00
3701;DHT22;1866;48.374;10.766;2023-04-15T15:18:14;8.30;1.00
3701;DHT22;1866;48.374;10.766;2023-04-15T15:20:44;8.20;1.00
3701;DHT22;1866;48.374;10.766;2023-04-15T15:23:11;8.30;1.00
3701;DHT22;1866;48.374;10.766;2023-04-15T15:25:38;8.30;1.00
3701;DHT22;1866;48.374;10.766;2023-04-15T15:28:05;8.30;1.00
3701;DHT22;1866;48.374;10.766;2023-04-15T15:30:32;8.30;1.00
3701;DHT22;1866;48.374;10.766;2023-04-15T15:32:59;8.30;1.00
3701;DHT22;1866;48.374;10.766;2023-04-15T15:35:26;8.30;1.00
3701;DHT22;1866;48.374;10.766;2023-04-15T15:37:54;8.20;1.00
3701;DHT22;1866;48.374;10.766;2023-04-15T15:40:21;8.20;1.00
3701;DHT22;1866;48.374;10.766;2023-04-15T15:42:48;8.20;1.00
3701;DHT22;1866;48.374;10.766;2023-04-15T15:45:15;8.20;1.00
3701;DHT22;1866;48.374;10.766;2023-04-15T15:47:42;8.10;1.00
3701;DHT22;1866;48.374;10.766;2023-04-15T15:50:09;8.20;1.00
3701;DHT22;1866;48.374;10.766;2023-04-15T15:52:36;8.10;1.00
3701;DHT22;1866;48.374;10.766;2023-04-15T15:55:06;8.00;1.00
3701;DHT22;1866;48.374;10.766;2023-04-15T15:57:33;8.00;1.00
3701;DHT22;1866;48.374;10.766;2023-04-15T16:00:00;8.00;1.00
3701;DHT22;1866;48.374;10.766;2023-04-15T16:02:26;8.10;1.00
3701;DHT22;1866;48.374;10.766;2023-04-15T16:04:54;8.00;1.00
3701;DHT22;1866;48.374;10.766;2023-04-15T16:07:21;7.90;1.00
3701;DHT22;1866;48.374;10.766;2023-04-15T16:09:48;7.90;1.00
3701;DHT22;1866;48.374;10.766;2023-04-15T16:12:16;8.00;1.00